Time;durP1;ratioP1;P1;durP2;ratioP2;P2;SDS_P1;SDS_P2;PMS_P1;PMS_P2;Temp;Humidity;BMP_temperature;BMP_pressure;BME280_temperature;BME280_humidity;BME280_pressure;Samples;Min_cycle;Max_cycle;Signal;HPM_P1;HPM_P2
2023/08/23 00:02:09;;;;;;;8.75;6.00;;;;;;;;;;4955220;29;20055;-85
2023/08/23 00:04:37;;;;;;;10.18;6.65;;;;;;;;;;4955252;29;20187;-86
2023/08/23 00:07:07;;;;;;;12.00;6.97;;;;;;;;;;4956363;29;20471;-86
2023/08/23 00:09:34;;;;;;;8.18;6.45;;;;;;;;;;4955079;29;20047;-86
2023/08/23 00:12:01;;;;;;;11.30;7.15;;;;;;;;;;4955189;29;20048;-86
2023/08/23 00:14:28;;;;;;;9.00;6.95;;;;;;;;;;4954951;29;20055;-86
2023/08/23 00:16:56;;;;;;;12.25;7.55;;;;;;;;;;4955135;29;20400;-86
2023/08/23 00:19:23;;;;;;;11.75;7.68;;;;;;;;;;4955706;29;20051;-86
2023/08/23 00:21:50;;;;;;;11.43;7.30;;;;;;;;;;4954936;29;20102;-85
2023/08/23 00:24:19;;;;;;;8.82;7.55;;;;;;;;;;4954936;29;20051;-86
2023/08/23 00:26:46;;;;;;;18.20;8.05;;;;;;;;;;4955706;29;20110;-85
2023/08/23 00:29:13;;;;;;;10.98;8.15;;;;;;;;;;4956035;29;20055;-86
2023/08/23 00:31:41;;;;;;;12.85;7.50;;;;;;;;;;4954756;29;20051;-86
2023/08/23 00:34:08;;;;;;;10.40;7.75;;;;;;;;;;4955733;29;20043;-85
2023/08/23 00:36:35;;;;;;;11.25;7.53;;;;;;;;;;4954302;29;20051;-85
2023/08/23 00:39:03;;;;;;;14.73;7.50;;;;;;;;;;4954795;29;20070;-86
2023/08/23 00:41:30;;;;;;;11.38;7.65;;;;;;;;;;4955767;29;20079;-85
2023/08/23 00:43:57;;;;;;;12.13;7.72;;;;;;;;;;4955588;29;20419;-86
2023/08/23 00:46:25;;;;;;;11.85;8.30;;;;;;;;;;4954523;29;20093;-86
2023/08/23 00:48:52;;;;;;;10.27;8.30;;;;;;;;;;4954627;29;20055;-85
2023/08/23 00:51:20;;;;;;;11.60;8.93;;;;;;;;;;4955573;29;20082;-85
2023/08/23 00:53:47;;;;;;;11.45;8.25;;;;;;;;;;4954318;29;20052;-85
2023/08/23 00:56:15;;;;;;;13.48;8.48;;;;;;;;;;4954339;29;20055;-85
2023/08/23 00:58:42;;;;;;;17.48;9.68;;;;;;;;;;4955413;29;20051;-85
2023/08/23 01:01:10;;;;;;;9.75;8.20;;;;;;;;;;4954611;29;20047;-86
2023/08/23 01:03:37;;;;;;;11.48;8.45;;;;;;;;;;4954737;29;20122;-85
2023/08/23 01:06:27;;;;;;;10.60;7.88;;;;;;;;;;4954336;29;20471;-85
2023/08/23 01:08:58;;;;;;;10.13;8.02;;;;;;;;;;4954358;29;20058;-86
2023/08/23 01:11:46;;;;;;;12.43;8.23;;;;;;;;;;4954135;29;20078;-86
2023/08/23 01:14:22;;;;;;;9.68;8.27;;;;;;;;;;4955270;29;20055;-85
2023/08/23 01:16:50;;;;;;;14.60;9.13;;;;;;;;;;4955155;29;20414;-85
2023/08/23 01:19:30;;;;;;;14.75;8.80;;;;;;;;;;4954067;29;20384;-85
2023/08/23 01:21:58;;;;;;;12.40;8.25;;;;;;;;;;4955387;28;20043;-85
2023/08/23 01:24:25;;;;;;;14.38;8.65;;;;;;;;;;4954900;29;20066;-85
2023/08/23 01:26:53;;;;;;;16.17;10.00;;;;;;;;;;4954038;29;20075;-85
2023/08/23 01:29:20;;;;;;;14.05;9.30;;;;;;;;;;4954089;29;20081;-85
2023/08/23 01:31:50;;;;;;;11.50;9.20;;;;;;;;;;4953935;29;20090;-85
2023/08/23 01:34:23;;;;;;;12.80;8.88;;;;;;;;;;4954001;29;20063;-86
2023/08/23 01:36:52;;;;;;;11.07;8.75;;;;;;;;;;4954890;29;20079;-86
2023/08/23 01:39:21;;;;;;;12.90;9.15;;;;;;;;;;4958716;29;20494;-86
2023/08/23 01:41:50;;;;;;;10.45;8.60;;;;;;;;;;4954960;29;20051;-85
2023/08/23 01:44:17;;;;;;;11.38;9.70;;;;;;;;;;4954893;29;20055;-85
2023/08/23 01:46:47;;;;;;;11.27;9.55;;;;;;;;;;4954593;29;20566;-85
2023/08/23 01:49:14;;;;;;;14.05;9.95;;;;;;;;;;4953824;29;20047;-85
2023/08/23 01:51:41;;;;;;;17.10;10.23;;;;;;;;;;4953693;29;20074;-86
2023/08/23 01:54:09;;;;;;;15.52;9.20;;;;;;;;;;4953821;29;20515;-86
2023/08/23 01:56:36;;;;;;;13.75;10.00;;;;;;;;;;4954959;29;20051;-86
2023/08/23 01:59:03;;;;;;;10.77;9.65;;;;;;;;;;4953657;29;20059;-85
2023/08/23 02:01:31;;;;;;;12.50;10.20;;;;;;;;;;4954661;29;20126;-85
2023/08/23 02:03:59;;;;;;;19.75;10.40;;;;;;;;;;4953408;29;20051;-85
2023/08/23 02:06:26;;;;;;;12.73;10.50;;;;;;;;;;4954335;29;20106;-85
2023/08/23 02:08:53;;;;;;;15.25;10.80;;;;;;;;;;4953580;29;20055;-85
2023/08/23 02:11:21;;;;;;;14.38;11.18;;;;;;;;;;4953638;29;20051;-86
2023/08/23 02:13:48;;;;;;;12.20;9.55;;;;;;;;;;4954414;29;20087;-86
2023/08/23 02:16:15;;;;;;;19.20;10.95;;;;;;;;;;4953194;29;20094;-85
2023/08/23 02:18:42;;;;;;;16.30;11.77;;;;;;;;;;4954215;29;20077;-85
2023/08/23 02:21:10;;;;;;;12.95;10.27;;;;;;;;;;4953255;28;20043;-85
2023/08/23 02:23:37;;;;;;;10.55;9.52;;;;;;;;;;4956872;29;20047;-85
2023/08/23 02:26:04;;;;;;;14.70;10.48;;;;;;;;;;4956800;29;20402;-85
2023/08/23 02:28:32;;;;;;;12.75;9.38;;;;;;;;;;4956650;29;20106;-85
2023/08/23 02:31:03;;;;;;;11.32;9.38;;;;;;;;;;4956372;29;20055;-85
2023/08/23 02:33:30;;;;;;;15.50;9.20;;;;;;;;;;4956688;29;20105;-86
2023/08/23 02:35:57;;;;;;;11.90;9.57;;;;;;;;;;4956577;29;20472;-85
2023/08/23 02:38:25;;;;;;;17.00;9.75;;;;;;;;;;4957598;29;20087;-85
2023/08/23 02:40:55;;;;;;;14.55;9.43;;;;;;;;;;4956303;29;20510;-85
2023/08/23 02:43:22;;;;;;;9.77;8.48;;;;;;;;;;4957331;28;20059;-85
2023/08/23 02:45:50;;;;;;;14.50;9.80;;;;;;;;;;4956293;29;20082;-86
2023/08/23 02:48:17;;;;;;;16.00;11.07;;;;;;;;;;4956974;29;20051;-85
2023/08/23 02:50:44;;;;;;;15.98;10.30;;;;;;;;;;4957857;29;20134;-85
2023/08/23 02:53:12;;;;;;;15.80;9.85;;;;;;;;;;4956211;29;20515;-85
2023/08/23 02:55:39;;;;;;;12.07;10.00;;;;;;;;;;4956192;29;20070;-85
2023/08/23 02:58:06;;;;;;;15.85;10.50;;;;;;;;;;4956064;29;20482;-86
2023/08/23 03:00:34;;;;;;;11.20;10.05;;;;;;;;;;4956036;29;20051;-85
2023/08/23 03:03:02;;;;;;;13.55;10.18;;;;;;;;;;4957422;28;20182;-85
2023/08/23 03:05:29;;;;;;;11.05;10.05;;;;;;;;;;4957190;29;20522;-85
2023/08/23 03:07:56;;;;;;;10.98;9.90;;;;;;;;;;4956114;29;20055;-85
2023/08/23 03:10:23;;;;;;;15.18;9.75;;;;;;;;;;4955886;29;20488;-85
2023/08/23 03:12:51;;;;;;;15.68;10.95;;;;;;;;;;4955849;29;20287;-86
2023/08/23 03:15:19;;;;;;;12.60;10.63;;;;;;;;;;4955889;29;20488;-85
2023/08/23 03:17:46;;;;;;;13.68;9.95;;;;;;;;;;4955762;29;20394;-85
2023/08/23 03:20:14;;;;;;;12.10;9.90;;;;;;;;;;4955083;29;20070;-85
2023/08/23 03:22:41;;;;;;;14.00;10.65;;;;;;;;;;4956085;29;20075;-86
2023/08/23 03:25:09;;;;;;;15.88;11.25;;;;;;;;;;4957012;29;20055;-86
2023/08/23 03:27:36;;;;;;;11.18;9.90;;;;;;;;;;4955556;29;20106;-85
2023/08/23 03:30:04;;;;;;;15.48;9.95;;;;;;;;;;4955977;29;20055;-86
2023/08/23 03:32:31;;;;;;;12.13;10.43;;;;;;;;;;4955440;28;20554;-85
2023/08/23 03:34:59;;;;;;;11.50;10.32;;;;;;;;;;4955101;29;20059;-86
2023/08/23 03:37:26;;;;;;;14.00;9.57;;;;;;;;;;4955059;29;20554;-85
2023/08/23 03:39:53;;;;;;;13.55;8.70;;;;;;;;;;4955280;29;20106;-85
2023/08/23 03:42:20;;;;;;;12.40;9.43;;;;;;;;;;4955486;29;20082;-86
2023/08/23 03:44:50;;;;;;;12.25;9.63;;;;;;;;;;4956477;29;20070;-86
2023/08/23 03:47:17;;;;;;;12.30;8.85;;;;;;;;;;4955450;29;20085;-86
2023/08/23 03:49:44;;;;;;;12.85;9.75;;;;;;;;;;4956434;29;20086;-85
2023/08/23 03:52:11;;;;;;;11.73;8.55;;;;;;;;;;4955551;29;20389;-86
2023/08/23 03:54:39;;;;;;;12.18;9.90;;;;;;;;;;4956516;29;20071;-85
2023/08/23 03:57:06;;;;;;;14.48;10.02;;;;;;;;;;4955010;29;20079;-86
2023/08/23 03:59:33;;;;;;;17.88;11.50;;;;;;;;;;4956172;29;20047;-84
2023/08/23 04:02:01;;;;;;;16.85;11.65;;;;;;;;;;4956265;29;20051;-85
2023/08/23 04:04:28;;;;;;;12.02;10.80;;;;;;;;;;4954820;29;20525;-85
2023/08/23 04:06:55;;;;;;;11.57;10.15;;;;;;;;;;4954951;29;20050;-85
2023/08/23 04:09:23;;;;;;;13.40;10.48;;;;;;;;;;4954770;29;20078;-85
2023/08/23 04:11:50;;;;;;;11.88;10.52;;;;;;;;;;4954975;29;20460;-85
2023/08/23 04:14:17;;;;;;;13.80;12.27;;;;;;;;;;4954850;29;20082;-86
2023/08/23 04:16:47;;;;;;;17.13;12.80;;;;;;;;;;4954368;29;20051;-86
2023/08/23 04:19:14;;;;;;;20.30;12.93;;;;;;;;;;4955321;29;20516;-85
2023/08/23 04:21:42;;;;;;;17.58;12.68;;;;;;;;;;4954407;29;20567;-85
2023/08/23 04:24:09;;;;;;;15.25;13.15;;;;;;;;;;4954657;29;20141;-86
2023/08/23 04:26:38;;;;;;;14.57;12.95;;;;;;;;;;4955684;28;20142;-86
2023/08/23 04:29:05;;;;;;;16.75;12.63;;;;;;;;;;4955755;28;20047;-85
2023/08/23 04:31:32;;;;;;;18.40;13.60;;;;;;;;;;4954635;29;20456;-86
2023/08/23 04:34:02;;;;;;;19.10;13.13;;;;;;;;;;4955317;29;20102;-85
2023/08/23 04:36:30;;;;;;;17.38;12.25;;;;;;;;;;4954364;29;20106;-85
2023/08/23 04:38:57;;;;;;;23.38;11.85;;;;;;;;;;4955166;29;20149;-85
2023/08/23 04:41:24;;;;;;;16.60;10.80;;;;;;;;;;4955541;29;20051;-85
2023/08/23 04:43:52;;;;;;;16.42;11.50;;;;;;;;;;4955185;28;20079;-86
2023/08/23 04:46:19;;;;;;;14.77;11.23;;;;;;;;;;4954959;29;20079;-86
2023/08/23 04:48:46;;;;;;;11.48;9.95;;;;;;;;;;4954321;29;20083;-85
2023/08/23 04:51:13;;;;;;;11.32;9.90;;;;;;;;;;4954346;29;20491;-85
2023/08/23 04:53:41;;;;;;;14.55;10.13;;;;;;;;;;4954502;29;20495;-85
2023/08/23 04:56:08;;;;;;;18.58;10.57;;;;;;;;;;4954354;29;20047;-85
2023/08/23 04:58:35;;;;;;;11.52;9.43;;;;;;;;;;4954089;29;20062;-85
2023/08/23 05:01:06;;;;;;;21.42;10.55;;;;;;;;;;4954984;29;20107;-85
2023/08/23 05:03:34;;;;;;;27.33;11.10;;;;;;;;;;4954247;29;20054;-86
2023/08/23 05:06:02;;;;;;;17.15;10.60;;;;;;;;;;4953985;29;20057;-85
2023/08/23 05:08:29;;;;;;;16.83;11.18;;;;;;;;;;4953548;29;20058;-85
2023/08/23 05:10:57;;;;;;;11.55;9.63;;;;;;;;;;4953971;29;20051;-85
2023/08/23 05:13:24;;;;;;;11.88;10.27;;;;;;;;;;4953815;29;20051;-85
2023/08/23 05:15:52;;;;;;;11.80;8.45;;;;;;;;;;4953941;29;20394;-85
2023/08/23 05:18:19;;;;;;;14.35;8.75;;;;;;;;;;4953951;29;20051;-85
2023/08/23 05:20:47;;;;;;;11.18;8.68;;;;;;;;;;4954779;29;20328;-85
2023/08/23 05:23:14;;;;;;;13.98;8.07;;;;;;;;;;4953675;29;20075;-85
2023/08/23 05:25:41;;;;;;;8.70;6.82;;;;;;;;;;4953464;29;20051;-85
2023/08/23 05:28:09;;;;;;;9.25;6.32;;;;;;;;;;4953442;29;20071;-85
2023/08/23 05:30:39;;;;;;;6.97;6.38;;;;;;;;;;4953466;29;20350;-85
2023/08/23 05:33:06;;;;;;;6.63;5.80;;;;;;;;;;4953274;29;20420;-84
2023/08/23 05:36:00;;;;;;;5.65;5.15;;;;;;;;;;4953197;29;20055;-84
2023/08/23 05:38:28;;;;;;;7.57;4.93;;;;;;;;;;4947639;29;20055;-85
2023/08/23 05:40:56;;;;;;;8.95;4.78;;;;;;;;;;4953467;29;20055;-85
2023/08/23 05:43:23;;;;;;;10.23;4.50;;;;;;;;;;4953174;29;20106;-85
2023/08/23 05:45:56;;;;;;;7.88;4.45;;;;;;;;;;4954365;29;20055;-85
2023/08/23 05:48:24;;;;;;;5.07;4.22;;;;;;;;;;4953067;28;20047;-84
2023/08/23 05:50:51;;;;;;;10.90;4.20;;;;;;;;;;4953873;29;20126;-85
2023/08/23 05:53:19;;;;;;;4.45;3.65;;;;;;;;;;4952920;29;20145;-85
2023/08/23 05:55:47;;;;;;;5.53;4.30;;;;;;;;;;4953103;28;20681;-85
2023/08/23 05:58:15;;;;;;;5.57;4.00;;;;;;;;;;4957931;28;20109;-85
2023/08/23 06:00:43;;;;;;;5.60;3.80;;;;;;;;;;4957015;29;20040;-85
2023/08/23 06:03:10;;;;;;;9.48;4.30;;;;;;;;;;4957080;29;20142;-85
2023/08/23 06:05:38;;;;;;;4.38;3.95;;;;;;;;;;4957802;29;20047;-85
2023/08/23 06:08:05;;;;;;;7.38;3.63;;;;;;;;;;4956884;29;20102;-85
2023/08/23 06:10:32;;;;;;;4.97;3.75;;;;;;;;;;4957038;29;20051;-85
2023/08/23 06:13:00;;;;;;;17.17;4.50;;;;;;;;;;4957000;29;20094;-85
2023/08/23 06:15:27;;;;;;;6.32;3.30;;;;;;;;;;4957103;29;20102;-85
2023/08/23 06:17:55;;;;;;;9.27;3.38;;;;;;;;;;4957341;29;20109;-85
2023/08/23 06:20:22;;;;;;;6.25;3.65;;;;;;;;;;4956948;29;20055;-84
2023/08/23 06:22:50;;;;;;;9.63;3.90;;;;;;;;;;4955486;29;20047;-85
2023/08/23 06:25:17;;;;;;;7.95;3.58;;;;;;;;;;4955963;29;20093;-86
2023/08/23 06:27:45;;;;;;;6.45;3.80;;;;;;;;;;4956744;29;20117;-85
2023/08/23 06:30:15;;;;;;;10.07;3.47;;;;;;;;;;4956801;29;20051;-86
2023/08/23 06:32:49;;;;;;;4.88;3.45;;;;;;;;;;4956528;29;20086;-86
2023/08/23 06:35:17;;;;;;;8.88;3.75;;;;;;;;;;4956693;29;20062;-86
2023/08/23 06:37:45;;;;;;;8.32;4.15;;;;;;;;;;4955713;29;20051;-86
2023/08/23 06:40:14;;;;;;;9.57;3.60;;;;;;;;;;4961345;29;20047;-84
2023/08/23 06:42:41;;;;;;;6.95;3.13;;;;;;;;;;4972481;28;20087;-86
2023/08/23 06:45:09;;;;;;;6.38;3.30;;;;;;;;;;4967043;29;20055;-86
2023/08/23 06:47:40;;;;;;;11.07;3.45;;;;;;;;;;4957506;29;20142;-86
2023/08/23 06:50:08;;;;;;;6.40;3.65;;;;;;;;;;4956534;29;20104;-87
2023/08/23 06:52:39;;;;;;;4.82;3.20;;;;;;;;;;4956821;29;20066;-86
2023/08/23 06:55:07;;;;;;;7.25;3.17;;;;;;;;;;4956226;29;20078;-86
2023/08/23 06:57:34;;;;;;;5.50;3.10;;;;;;;;;;4956273;29;20496;-86
2023/08/23 07:00:01;;;;;;;9.95;3.00;;;;;;;;;;4957079;28;20423;-87
2023/08/23 07:02:29;;;;;;;7.60;3.10;;;;;;;;;;4956396;29;20074;-86
2023/08/23 07:04:56;;;;;;;6.55;2.90;;;;;;;;;;4956371;29;20081;-86
2023/08/23 07:07:23;;;;;;;21.75;4.43;;;;;;;;;;4956144;28;20047;-87
2023/08/23 07:09:51;;;;;;;11.68;4.70;;;;;;;;;;4956440;29;20055;-86
2023/08/23 07:12:20;;;;;;;18.65;4.43;;;;;;;;;;4956234;29;20574;-86
2023/08/23 07:14:49;;;;;;;25.95;4.55;;;;;;;;;;4956142;29;20077;-87
2023/08/23 07:17:17;;;;;;;11.10;4.18;;;;;;;;;;4956257;28;20058;-87
2023/08/23 07:19:44;;;;;;;12.65;3.72;;;;;;;;;;4956158;29;20055;-87
2023/08/23 07:22:12;;;;;;;14.48;3.65;;;;;;;;;;4957271;28;20444;-86
2023/08/23 07:24:39;;;;;;;18.85;4.35;;;;;;;;;;4956136;29;20114;-87
2023/08/23 07:27:06;;;;;;;13.98;3.25;;;;;;;;;;4955867;29;20098;-86
2023/08/23 07:29:36;;;;;;;11.90;3.60;;;;;;;;;;4956093;29;20086;-88
2023/08/23 07:32:04;;;;;;;15.60;3.20;;;;;;;;;;4956817;29;20051;-87
2023/08/23 07:34:31;;;;;;;11.00;3.70;;;;;;;;;;4957256;29;20463;-87
2023/08/23 07:36:59;;;;;;;23.35;3.90;;;;;;;;;;4956108;29;20106;-89
2023/08/23 07:39:27;;;;;;;16.80;3.03;;;;;;;;;;4955224;29;20051;-87
2023/08/23 07:41:55;;;;;;;8.85;1.90;;;;;;;;;;4955754;29;20059;-88
2023/08/23 07:44:22;;;;;;;5.10;1.95;;;;;;;;;;4955311;29;20054;-86
2023/08/23 07:46:52;;;;;;;7.93;2.38;;;;;;;;;;4955824;29;20097;-88
2023/08/23 07:49:20;;;;;;;11.05;2.60;;;;;;;;;;4955350;29;20095;-87
2023/08/23 07:51:48;;;;;;;10.55;2.28;;;;;;;;;;4955123;29;20511;-88
2023/08/23 07:54:15;;;;;;;6.43;1.63;;;;;;;;;;4956079;28;20503;-91
2023/08/23 07:56:43;;;;;;;7.13;1.80;;;;;;;;;;4955803;29;20115;-89
2023/08/23 07:59:10;;;;;;;4.28;1.58;;;;;;;;;;4955599;29;20051;-90
2023/08/23 08:01:37;;;;;;;2.95;1.35;;;;;;;;;;4955597;29;20059;-90
2023/08/23 08:04:04;;;;;;;2.50;1.42;;;;;;;;;;4955470;29;20048;-87
2023/08/23 08:06:32;;;;;;;8.13;1.60;;;;;;;;;;4955310;29;20074;-88
2023/08/23 08:08:59;;;;;;;3.75;1.20;;;;;;;;;;4955457;29;20043;-89
2023/08/23 08:11:26;;;;;;;4.20;1.38;;;;;;;;;;4955538;29;20051;-89
2023/08/23 08:13:53;;;;;;;1.55;1.05;;;;;;;;;;4955662;29;20055;-87
2023/08/23 08:16:21;;;;;;;4.00;1.70;;;;;;;;;;4955073;29;20078;-87
2023/08/23 08:18:48;;;;;;;2.55;1.50;;;;;;;;;;4955466;28;20047;-91
2023/08/23 08:21:17;;;;;;;4.43;1.52;;;;;;;;;;4954749;29;20051;-89
2023/08/23 08:23:46;;;;;;;4.75;1.70;;;;;;;;;;4955100;28;20055;-88
2023/08/23 08:26:13;;;;;;;3.03;1.23;;;;;;;;;;4955319;28;20047;-88
2023/08/23 08:28:45;;;;;;;3.95;1.20;;;;;;;;;;4954921;29;20054;-88
2023/08/23 08:31:13;;;;;;;5.88;1.92;;;;;;;;;;4955150;28;20055;-90
2023/08/23 08:33:41;;;;;;;7.22;1.95;;;;;;;;;;4954891;28;20133;-88
2023/08/23 08:36:09;;;;;;;7.55;1.30;;;;;;;;;;4955064;28;20059;-92
2023/08/23 08:38:38;;;;;;;10.73;2.03;;;;;;;;;;4955043;29;20090;-91
2023/08/23 08:41:06;;;;;;;19.08;2.42;;;;;;;;;;4954920;29;20062;-89
2023/08/23 08:43:35;;;;;;;5.22;1.23;;;;;;;;;;4954774;28;20582;-88
2023/08/23 08:46:05;;;;;;;2.85;1.00;;;;;;;;;;4954813;28;20484;-89
2023/08/23 08:48:33;;;;;;;5.88;1.00;;;;;;;;;;4954961;29;20100;-90
2023/08/23 08:51:02;;;;;;;3.53;1.00;;;;;;;;;;4954661;29;20118;-89
2023/08/23 08:53:34;;;;;;;5.03;1.40;;;;;;;;;;4954752;28;20051;-91
2023/08/23 08:56:02;;;;;;;7.25;0.90;;;;;;;;;;4954698;29;20407;-89
2023/08/23 08:58:30;;;;;;;2.75;1.00;;;;;;;;;;4954711;29;20102;-92
2023/08/23 09:00:59;;;;;;;7.43;1.50;;;;;;;;;;4954644;29;20055;-90
2023/08/23 09:03:27;;;;;;;2.78;1.00;;;;;;;;;;4954598;28;20147;-89
2023/08/23 09:05:54;;;;;;;1.75;1.05;;;;;;;;;;4954589;29;20475;-89
2023/08/23 09:08:22;;;;;;;4.57;1.20;;;;;;;;;;4954456;29;20459;-88
2023/08/23 09:10:50;;;;;;;5.10;1.08;;;;;;;;;;4955845;28;20062;-92
2023/08/23 09:13:17;;;;;;;3.60;1.10;;;;;;;;;;4954724;28;20062;-89
2023/08/23 09:15:47;;;;;;;4.78;1.40;;;;;;;;;;4955332;29;20055;-89
2023/08/23 09:18:19;;;;;;;6.55;1.23;;;;;;;;;;4955973;28;20054;-91
2023/08/23 09:20:46;;;;;;;3.85;1.30;;;;;;;;;;4954784;28;20086;-90
2023/08/23 09:23:13;;;;;;;2.85;1.13;;;;;;;;;;4957265;29;20043;-91
2023/08/23 09:25:41;;;;;;;4.20;0.88;;;;;;;;;;4956903;29;20062;-91
2023/08/23 09:28:12;;;;;;;2.88;1.10;;;;;;;;;;4941790;29;20047;-88
2023/08/23 09:30:40;;;;;;;13.65;2.08;;;;;;;;;;4959149;28;20531;-90
2023/08/23 09:33:10;;;;;;;7.15;1.30;;;;;;;;;;4963479;29;20055;-90
2023/08/23 09:35:47;;;;;;;3.75;1.00;;;;;;;;;;4966452;28;20424;-91
2023/08/23 09:38:18;;;;;;;3.80;1.20;;;;;;;;;;4963845;28;20443;-95
2023/08/23 09:40:47;;;;;;;2.70;1.10;;;;;;;;;;4958399;28;20079;-91
2023/08/23 09:43:16;;;;;;;1.70;0.77;;;;;;;;;;4958336;28;20114;-92
2023/08/23 09:45:45;;;;;;;4.25;0.82;;;;;;;;;;4959263;28;20122;-95
2023/08/23 09:48:13;;;;;;;6.47;1.20;;;;;;;;;;4959939;29;20046;-94
2023/08/23 09:50:40;;;;;;;7.47;1.25;;;;;;;;;;4960645;28;20063;-94
2023/08/23 09:53:12;;;;;;;3.97;1.30;;;;;;;;;;4964569;29;20047;-94
2023/08/23 09:55:40;;;;;;;2.67;1.27;;;;;;;;;;4962688;29;20444;-96
2023/08/23 09:58:07;;;;;;;5.40;1.20;;;;;;;;;;4960016;29;20299;-94
2023/08/23 10:00:34;;;;;;;12.95;1.90;;;;;;;;;;4957532;29;20074;-92
2023/08/23 10:03:02;;;;;;;1.85;1.30;;;;;;;;;;4958276;29;20074;-95
2023/08/23 10:05:30;;;;;;;1.83;1.02;;;;;;;;;;4957738;29;20062;-93
2023/08/23 10:07:57;;;;;;;3.85;1.10;;;;;;;;;;4958736;29;20051;-94
2023/08/23 10:10:25;;;;;;;4.65;1.08;;;;;;;;;;4962982;29;20047;-93
2023/08/23 10:12:55;;;;;;;2.38;1.05;;;;;;;;;;4959863;28;20055;-93
2023/08/23 10:15:30;;;;;;;4.93;1.45;;;;;;;;;;4957814;29;20051;-93
2023/08/23 10:17:59;;;;;;;2.17;0.95;;;;;;;;;;4957522;29;20519;-93
2023/08/23 10:20:26;;;;;;;3.88;1.10;;;;;;;;;;4957808;29;20047;-92
2023/08/23 10:22:54;;;;;;;3.72;1.10;;;;;;;;;;4959080;29;20059;-93
2023/08/23 10:25:22;;;;;;;3.30;1.20;;;;;;;;;;4959707;28;20055;-96
2023/08/23 10:27:52;;;;;;;6.93;1.10;;;;;;;;;;4957796;29;20063;-93
2023/08/23 10:30:24;;;;;;;2.15;1.00;;;;;;;;;;4957462;29;20118;-93
2023/08/23 10:32:52;;;;;;;4.20;1.23;;;;;;;;;;4957682;28;20063;-92
2023/08/23 10:35:39;;;;;;;4.78;1.40;;;;;;;;;;4958294;29;20055;-93
2023/08/23 10:38:07;;;;;;;4.22;1.10;;;;;;;;;;4960252;28;20058;-95
2023/08/23 10:40:35;;;;;;;2.72;1.30;;;;;;;;;;4961949;29;20062;-94
2023/08/23 10:43:04;;;;;;;2.03;1.20;;;;;;;;;;4964247;28;20130;-96
2023/08/23 10:46:08;;;;;;;4.18;1.00;;;;;;;;;;4962830;28;20058;-90
2023/08/23 10:48:41;;;;;;;3.25;1.17;;;;;;;;;;4951151;29;20051;-95
2023/08/23 10:51:08;;;;;;;;;;;;;;;;;;4958415;29;20055;-93
2023/08/23 10:53:37;;;;;;;3.38;1.20;;;;;;;;;;4959353;29;19936;-96
2023/08/23 10:56:05;;;;;;;1.88;1.15;;;;;;;;;;4959295;29;20051;-92
2023/08/23 10:58:33;;;;;;;3.20;1.17;;;;;;;;;;4959748;29;20059;-92
2023/08/23 11:01:00;;;;;;;1.58;1.10;;;;;;;;;;4957270;28;20055;-96
2023/08/23 11:03:28;;;;;;;1.70;0.90;;;;;;;;;;4956653;29;20127;-94
2023/08/23 11:05:56;;;;;;;2.53;1.17;;;;;;;;;;4956988;29;20081;-95
2023/08/23 11:08:24;;;;;;;2.45;1.25;;;;;;;;;;4961586;29;20090;-93
2023/08/23 11:10:51;;;;;;;2.80;0.93;;;;;;;;;;4958862;29;20425;-93
2023/08/23 11:13:19;;;;;;;1.75;1.15;;;;;;;;;;4957971;29;20086;-95
2023/08/23 11:15:46;;;;;;;3.67;1.30;;;;;;;;;;4958192;29;20078;-91
2023/08/23 11:18:14;;;;;;;4.57;1.00;;;;;;;;;;4961179;29;20047;-96
2023/08/23 11:20:42;;;;;;;4.68;1.20;;;;;;;;;;4959821;28;20514;-91
2023/08/23 11:23:09;;;;;;;2.65;0.90;;;;;;;;;;4960128;29;20126;-95
2023/08/23 11:25:37;;;;;;;4.72;1.77;;;;;;;;;;4967855;29;20059;-93
2023/08/23 11:28:05;;;;;;;4.63;1.05;;;;;;;;;;4962278;29;20054;-94
2023/08/23 11:30:34;;;;;;;4.72;1.80;;;;;;;;;;4961032;28;20066;-96
2023/08/23 11:33:03;;;;;;;1.73;1.10;;;;;;;;;;4961004;28;20051;-94
2023/08/23 11:35:30;;;;;;;1.83;1.05;;;;;;;;;;4956840;28;20110;-94
2023/08/23 11:38:08;;;;;;;1.80;0.90;;;;;;;;;;4958199;29;20162;-96
2023/08/23 11:40:37;;;;;;;3.35;1.30;;;;;;;;;;4958727;29;20404;-91
2023/08/23 11:43:07;;;;;;;1.58;1.27;;;;;;;;;;4959856;29;20078;-93
2023/08/23 11:45:50;;;;;;;4.43;1.20;;;;;;;;;;4957364;29;20492;-94
2023/08/23 11:48:22;;;;;;;2.22;1.20;;;;;;;;;;4956979;28;20083;-96
2023/08/23 11:50:53;;;;;;;3.28;1.33;;;;;;;;;;4961214;28;20146;-93
2023/08/23 11:53:20;;;;;;;3.60;1.25;;;;;;;;;;4961156;28;20063;-95
2023/08/23 11:55:49;;;;;;;2.97;1.17;;;;;;;;;;4960779;29;20051;-96
2023/08/23 11:58:16;;;;;;;5.57;1.40;;;;;;;;;;4958108;28;20055;-94
2023/08/23 12:00:44;;;;;;;1.10;1.00;;;;;;;;;;4958669;29;20138;-95
2023/08/23 12:03:11;;;;;;;4.10;1.20;;;;;;;;;;4957159;29;20062;-96
2023/08/23 12:05:41;;;;;;;3.08;1.33;;;;;;;;;;4959426;29;20055;-95
2023/08/23 12:08:08;;;;;;;1.50;1.40;;;;;;;;;;4956440;29;20082;-92
2023/08/23 12:10:38;;;;;;;6.03;1.30;;;;;;;;;;4958726;29;20114;-96
2023/08/23 12:13:09;;;;;;;3.45;1.20;;;;;;;;;;4962336;29;20207;-96
2023/08/23 12:15:36;;;;;;;1.70;1.00;;;;;;;;;;4956780;29;20066;-95
2023/08/23 12:18:05;;;;;;;3.25;1.05;;;;;;;;;;4960172;29;20081;-95
2023/08/23 12:20:33;;;;;;;2.70;1.10;;;;;;;;;;4961859;29;20070;-95
2023/08/23 12:23:02;;;;;;;4.03;1.15;;;;;;;;;;4966433;28;20051;-95
2023/08/23 12:25:30;;;;;;;1.13;1.00;;;;;;;;;;4973032;29;20471;-95
2023/08/23 12:27:57;;;;;;;4.20;1.00;;;;;;;;;;4965048;29;20051;-96
2023/08/23 12:30:25;;;;;;;2.25;1.00;;;;;;;;;;4962469;29;20074;-94
2023/08/23 12:32:53;;;;;;;3.50;1.02;;;;;;;;;;4959392;28;20051;-96
2023/08/23 12:35:21;;;;;;;3.47;1.02;;;;;;;;;;4979172;23;20138;-84
2023/08/23 12:37:48;;;;;;;1.50;1.23;;;;;;;;;;4964393;23;20269;-84
2023/08/23 12:40:16;;;;;;;1.98;0.95;;;;;;;;;;4955496;29;20413;-82
2023/08/23 12:42:43;;;;;;;3.65;1.35;;;;;;;;;;4955685;29;20114;-82
2023/08/23 12:45:11;;;;;;;1.88;1.05;;;;;;;;;;4938843;29;20055;-85
2023/08/23 12:47:38;;;;;;;4.35;1.27;;;;;;;;;;4948634;28;20047;-83
2023/08/23 12:50:05;;;;;;;2.03;0.82;;;;;;;;;;4958677;28;20050;-83
2023/08/23 12:52:33;;;;;;;2.05;1.20;;;;;;;;;;4957723;28;20524;-84
2023/08/23 12:55:00;;;;;;;4.95;1.50;;;;;;;;;;4957803;28;20141;-84
2023/08/23 12:57:29;;;;;;;3.55;1.25;;;;;;;;;;4957923;28;20097;-82
2023/08/23 12:59:57;;;;;;;1.88;1.15;;;;;;;;;;4958725;28;20058;-84
2023/08/23 13:02:24;;;;;;;3.22;1.48;;;;;;;;;;4958226;28;20110;-83
2023/08/23 13:04:52;;;;;;;3.35;1.17;;;;;;;;;;4960707;28;20053;-83
2023/08/23 13:07:19;;;;;;;4.35;1.05;;;;;;;;;;4960137;28;20525;-83
2023/08/23 13:09:46;;;;;;;2.55;1.05;;;;;;;;;;4959995;28;20555;-84
2023/08/23 13:12:14;;;;;;;3.85;1.40;;;;;;;;;;4959818;28;20097;-85
2023/08/23 13:14:42;;;;;;;1.33;0.90;;;;;;;;;;4961397;28;20058;-82
2023/08/23 13:17:09;;;;;;;1.42;1.17;;;;;;;;;;4963315;28;20050;-82
2023/08/23 13:19:36;;;;;;;3.60;1.33;;;;;;;;;;4969070;28;20051;-82
2023/08/23 13:22:03;;;;;;;3.30;0.98;;;;;;;;;;4978655;28;20050;-81
2023/08/23 13:24:31;;;;;;;3.13;1.20;;;;;;;;;;4976926;28;20050;-83
2023/08/23 13:26:59;;;;;;;2.78;1.27;;;;;;;;;;4970736;28;20129;-82
2023/08/23 13:29:26;;;;;;;2.00;1.38;;;;;;;;;;4961818;28;20462;-84
2023/08/23 13:31:53;;;;;;;1.33;1.17;;;;;;;;;;4976838;28;20089;-84
2023/08/23 13:34:20;;;;;;;1.85;1.27;;;;;;;;;;4957632;28;20046;-84
2023/08/23 13:36:48;;;;;;;2.78;1.30;;;;;;;;;;4961500;28;20050;-83
2023/08/23 13:39:15;;;;;;;3.03;1.23;;;;;;;;;;4980255;28;20517;-85
2023/08/23 13:41:43;;;;;;;4.95;1.30;;;;;;;;;;4979606;28;20066;-82
2023/08/23 13:44:10;;;;;;;2.40;1.00;;;;;;;;;;4980700;28;20456;-84
2023/08/23 13:46:37;;;;;;;2.38;1.55;;;;;;;;;;4978868;28;20050;-85
2023/08/23 13:49:04;;;;;;;4.35;1.42;;;;;;;;;;4976637;28;20050;-85
2023/08/23 13:51:31;;;;;;;8.60;1.40;;;;;;;;;;4978591;28;20062;-84
2023/08/23 13:53:59;;;;;;;4.97;1.42;;;;;;;;;;4978528;28;20137;-85
2023/08/23 13:56:26;;;;;;;2.85;1.35;;;;;;;;;;4979141;28;20576;-83
2023/08/23 13:58:53;;;;;;;3.92;1.35;;;;;;;;;;4979992;28;20428;-83
2023/08/23 14:01:23;;;;;;;2.90;1.40;;;;;;;;;;4978513;28;20517;-84
2023/08/23 14:03:51;;;;;;;3.08;1.73;;;;;;;;;;4978672;28;20081;-83
2023/08/23 14:06:18;;;;;;;2.72;1.45;;;;;;;;;;4980394;28;20046;-84
2023/08/23 14:08:45;;;;;;;2.55;1.40;;;;;;;;;;4977447;28;20046;-85
2023/08/23 14:11:13;;;;;;;2.65;1.33;;;;;;;;;;4978215;28;20050;-84
2023/08/23 14:13:40;;;;;;;2.78;1.25;;;;;;;;;;4978838;28;20153;-82
2023/08/23 14:16:07;;;;;;;2.67;1.55;;;;;;;;;;4996010;28;20420;-83
2023/08/23 14:18:35;;;;;;;5.60;1.92;;;;;;;;;;4999877;28;20054;-84
2023/08/23 14:21:04;;;;;;;4.25;1.80;;;;;;;;;;5002642;28;20096;-84
2023/08/23 14:23:31;;;;;;;2.78;1.75;;;;;;;;;;4981811;28;20050;-84
2023/08/23 14:26:03;;;;;;;5.25;1.90;;;;;;;;;;4980638;28;20487;-84
2023/08/23 14:28:31;;;;;;;1.88;1.40;;;;;;;;;;4998876;28;20057;-84
2023/08/23 14:30:58;;;;;;;3.47;1.83;;;;;;;;;;4981032;28;20105;-85
2023/08/23 14:33:25;;;;;;;4.38;1.67;;;;;;;;;;4980885;28;20077;-83
2023/08/23 14:35:53;;;;;;;1.60;1.50;;;;;;;;;;4983486;28;20141;-82
2023/08/23 14:38:20;;;;;;;6.00;1.58;;;;;;;;;;4998659;28;20181;-83
2023/08/23 14:40:47;;;;;;;2.92;1.50;;;;;;;;;;4980913;28;20390;-83
2023/08/23 14:43:15;;;;;;;3.75;1.65;;;;;;;;;;4980230;28;20070;-85